KEPH

Ephrata Municipal Airport

Ephrata, Washington, USA
METAR KEPH 181953Z AUTO 35003KT 10SM OVC055 05/01 A2998 RMK AO2 SLP164 T00500011
Observed Flight Rules
Dec-18 @ 19:53 UTC (29 minutes ago) Visual Flight Rules
Wind Visibility Clouds
350° at 3 knots 10 miles
  • Overcast at 5,500' AGL
Temperatures Readings
Current 5°C / 41°F
Dewpoint 1°C / 34°F
Humidity 76%
Altimeter 29.98" Hg
Pressure 1016.4 hPa
Elevation 383
METAR KEPH 181953Z AUTO 35003KT 10SM OVC055 05/01 A2998 RMK AO2 SLP164 T00500011
Observed Flight Rules
Dec-18 @ 19:53 UTC
(29 minutes ago)
VFR
Wind Visibility
350° at 3 knots 10 miles
Clouds
  • Overcast at 5,500' AGL
Temperature Dewpoint
5°C / 41°F 1°C / 34°F
Humidity Altimeter Pressure
76% 29.98" Hg 1016.4 hPa